sensor_id;sensor_type;location;lat;lon;timestamp;pressure;altitude;pressure_sealevel;temperature;humidity
9676;BME280;4876;42.656;23.292;2023-11-18T00:00:38;93660.06;;;5.82;91.87
9676;BME280;4876;42.656;23.292;2023-11-18T00:03:05;93652.84;;;6.02;92.16
9676;BME280;4876;42.656;23.292;2023-11-18T00:05:32;93664.59;;;5.90;91.08
9676;BME280;4876;42.656;23.292;2023-11-18T00:07:58;93665.63;;;5.89;91.15
9676;BME280;4876;42.656;23.292;2023-11-18T00:10:25;93656.97;;;5.80;89.98
9676;BME280;4876;42.656;23.292;2023-11-18T00:12:53;93657.94;;;5.84;88.95
9676;BME280;4876;42.656;23.292;2023-11-18T00:15:20;93668.38;;;5.84;88.57
9676;BME280;4876;42.656;23.292;2023-11-18T00:17:47;93688.28;;;5.80;89.44
9676;BME280;4876;42.656;23.292;2023-11-18T00:20:14;93684.59;;;5.81;89.06
9676;BME280;4876;42.656;23.292;2023-11-18T00:22:42;93696.81;;;5.72;89.74
9676;BME280;4876;42.656;23.292;2023-11-18T00:25:10;93683.69;;;5.63;89.76
9676;BME280;4876;42.656;23.292;2023-11-18T00:27:39;93663.03;;;5.67;89.31
9676;BME280;4876;42.656;23.292;2023-11-18T00:30:08;93648.44;;;5.66;89.19
9676;BME280;4876;42.656;23.292;2023-11-18T00:32:36;93646.41;;;5.63;88.82
9676;BME280;4876;42.656;23.292;2023-11-18T00:35:05;93638.84;;;5.53;88.21
9676;BME280;4876;42.656;23.292;2023-11-18T00:37:32;93650.31;;;5.52;88.09
9676;BME280;4876;42.656;23.292;2023-11-18T00:39:59;93650.13;;;5.48;88.72
9676;BME280;4876;42.656;23.292;2023-11-18T00:42:26;93660.72;;;5.52;87.65
9676;BME280;4876;42.656;23.292;2023-11-18T00:44:53;93669.06;;;5.54;88.89
9676;BME280;4876;42.656;23.292;2023-11-18T00:47:22;93653.16;;;5.42;88.82
9676;BME280;4876;42.656;23.292;2023-11-18T00:49:49;93663.84;;;5.40;89.55
9676;BME280;4876;42.656;23.292;2023-11-18T00:52:18;93666.59;;;5.35;89.40
9676;BME280;4876;42.656;23.292;2023-11-18T00:54:45;93670.53;;;5.32;89.04
9676;BME280;4876;42.656;23.292;2023-11-18T00:57:12;93664.47;;;5.23;88.55
9676;BME280;4876;42.656;23.292;2023-11-18T00:59:41;93658.00;;;5.21;89.64
9676;BME280;4876;42.656;23.292;2023-11-18T01:02:09;93670.63;;;5.27;90.17
9676;BME280;4876;42.656;23.292;2023-11-18T01:04:38;93642.09;;;5.22;88.70
9676;BME280;4876;42.656;23.292;2023-11-18T01:07:05;93678.28;;;5.24;88.86
9676;BME280;4876;42.656;23.292;2023-11-18T01:09:31;93668.53;;;5.29;88.54
9676;BME280;4876;42.656;23.292;2023-11-18T01:12:03;93680.78;;;5.29;88.81
9676;BME280;4876;42.656;23.292;2023-11-18T01:14:31;93659.75;;;5.11;88.49
9676;BME280;4876;42.656;23.292;2023-11-18T01:16:58;93671.34;;;5.05;89.72
9676;BME280;4876;42.656;23.292;2023-11-18T01:19:25;93689.75;;;5.09;90.43
9676;BME280;4876;42.656;23.292;2023-11-18T01:21:53;93680.31;;;5.13;91.33
9676;BME280;4876;42.656;23.292;2023-11-18T01:24:21;93694.50;;;5.07;90.78
9676;BME280;4876;42.656;23.292;2023-11-18T01:26:48;93691.91;;;5.07;91.08
9676;BME280;4876;42.656;23.292;2023-11-18T01:29:15;93679.47;;;5.04;91.01
9676;BME280;4876;42.656;23.292;2023-11-18T01:31:42;93667.38;;;5.08;91.56
9676;BME280;4876;42.656;23.292;2023-11-18T01:34:09;93688.22;;;5.08;91.98
9676;BME280;4876;42.656;23.292;2023-11-18T01:36:37;93694.78;;;5.05;90.93
9676;BME280;4876;42.656;23.292;2023-11-18T01:39:05;93692.06;;;4.97;91.71
9676;BME280;4876;42.656;23.292;2023-11-18T01:41:33;93691.91;;;5.07;91.90
9676;BME280;4876;42.656;23.292;2023-11-18T01:44:01;93687.25;;;4.90;90.83
9676;BME280;4876;42.656;23.292;2023-11-18T01:46:29;93679.84;;;4.83;90.88
9676;BME280;4876;42.656;23.292;2023-11-18T01:48:56;93676.19;;;4.84;90.80
9676;BME280;4876;42.656;23.292;2023-11-18T01:51:24;93688.31;;;4.89;90.56
9676;BME280;4876;42.656;23.292;2023-11-18T01:53:51;93677.81;;;4.94;89.60
9676;BME280;4876;42.656;23.292;2023-11-18T01:56:19;93679.84;;;4.83;88.20
9676;BME280;4876;42.656;23.292;2023-11-18T01:58:50;93686.88;;;4.83;87.83
9676;BME280;4876;42.656;23.292;2023-11-18T02:01:18;93693.44;;;4.80;87.34
9676;BME280;4876;42.656;23.292;2023-11-18T02:03:45;93701.34;;;4.75;87.22
9676;BME280;4876;42.656;23.292;2023-11-18T02:06:13;93696.91;;;4.76;87.15
9676;BME280;4876;42.656;23.292;2023-11-18T02:08:41;93697.50;;;4.73;86.43
9676;BME280;4876;42.656;23.292;2023-11-18T02:11:14;93697.28;;;4.69;87.74
9676;BME280;4876;42.656;23.292;2023-11-18T02:13:48;93688.09;;;4.58;86.44
9676;BME280;4876;42.656;23.292;2023-11-18T02:16:16;93688.63;;;4.60;87.87
9676;BME280;4876;42.656;23.292;2023-11-18T02:18:43;93691.31;;;4.55;87.53
9676;BME280;4876;42.656;23.292;2023-11-18T02:21:11;93695.53;;;4.65;86.40
9676;BME280;4876;42.656;23.292;2023-11-18T02:23:40;93702.00;;;4.53;85.32
9676;BME280;4876;42.656;23.292;2023-11-18T02:26:08;93703.25;;;4.56;85.34
9676;BME280;4876;42.656;23.292;2023-11-18T02:28:35;93702.84;;;4.49;84.99
9676;BME280;4876;42.656;23.292;2023-11-18T02:31:05;93705.53;;;4.44;84.65
9676;BME280;4876;42.656;23.292;2023-11-18T02:33:44;93699.19;;;4.50;84.27
9676;BME280;4876;42.656;23.292;2023-11-18T02:36:22;93697.34;;;4.37;83.47
9676;BME280;4876;42.656;23.292;2023-11-18T02:38:53;93696.84;;;4.35;82.68
9676;BME280;4876;42.656;23.292;2023-11-18T02:41:24;93695.81;;;4.36;82.96
9676;BME280;4876;42.656;23.292;2023-11-18T02:43:55;93700.38;;;4.25;83.34
9676;BME280;4876;42.656;23.292;2023-11-18T02:46:24;93683.94;;;4.29;82.31
9676;BME280;4876;42.656;23.292;2023-11-18T02:48:53;93698.84;;;4.24;81.59
9676;BME280;4876;42.656;23.292;2023-11-18T02:51:20;93715.16;;;4.29;81.95
9676;BME280;4876;42.656;23.292;2023-11-18T02:53:47;93708.38;;;4.28;82.03
9676;BME280;4876;42.656;23.292;2023-11-18T02:56:14;93708.97;;;4.25;82.45
9676;BME280;4876;42.656;23.292;2023-11-18T02:58:47;93698.63;;;4.20;81.91
9676;BME280;4876;42.656;23.292;2023-11-18T03:01:14;93702.19;;;4.11;81.53
9676;BME280;4876;42.656;23.292;2023-11-18T03:03:41;93716.44;;;4.13;81.98
9676;BME280;4876;42.656;23.292;2023-11-18T03:06:08;93723.69;;;4.16;82.26
9676;BME280;4876;42.656;23.292;2023-11-18T03:08:36;93723.97;;;4.15;81.47
9676;BME280;4876;42.656;23.292;2023-11-18T03:11:04;93720.47;;;4.05;80.75
9676;BME280;4876;42.656;23.292;2023-11-18T03:13:34;93726.03;;;3.99;80.71
9676;BME280;4876;42.656;23.292;2023-11-18T03:16:06;93731.66;;;4.06;81.68
9676;BME280;4876;42.656;23.292;2023-11-18T03:18:37;93748.38;;;4.00;81.17
9676;BME280;4876;42.656;23.292;2023-11-18T03:21:06;93741.84;;;3.84;81.77
9676;BME280;4876;42.656;23.292;2023-11-18T03:23:33;93750.69;;;3.83;81.96
9676;BME280;4876;42.656;23.292;2023-11-18T03:26:00;93759.09;;;3.80;82.17
9676;BME280;4876;42.656;23.292;2023-11-18T03:28:27;93755.56;;;3.70;81.78
9676;BME280;4876;42.656;23.292;2023-11-18T03:30:53;93755.97;;;3.59;81.57
9676;BME280;4876;42.656;23.292;2023-11-18T03:33:22;93760.31;;;3.63;82.38
9676;BME280;4876;42.656;23.292;2023-11-18T03:35:49;93763.56;;;3.55;82.01
9676;BME280;4876;42.656;23.292;2023-11-18T03:38:15;93753.00;;;3.65;82.03
9676;BME280;4876;42.656;23.292;2023-11-18T03:40:43;93763.28;;;3.75;81.72
9676;BME280;4876;42.656;23.292;2023-11-18T03:43:12;93763.66;;;3.45;81.13
9676;BME280;4876;42.656;23.292;2023-11-18T03:45:39;93776.19;;;3.43;81.26
9676;BME280;4876;42.656;23.292;2023-11-18T03:48:06;93775.75;;;3.36;80.81
9676;BME280;4876;42.656;23.292;2023-11-18T03:50:34;93762.75;;;3.36;81.18
9676;BME280;4876;42.656;23.292;2023-11-18T03:53:01;93745.34;;;3.36;81.71
9676;BME280;4876;42.656;23.292;2023-11-18T03:55:29;93753.69;;;3.33;80.81
9676;BME280;4876;42.656;23.292;2023-11-18T03:57:56;93761.75;;;3.32;81.66
9676;BME280;4876;42.656;23.292;2023-11-18T04:00:23;93759.78;;;3.23;81.78
9676;BME280;4876;42.656;23.292;2023-11-18T04:02:55;93773.47;;;3.29;82.02
9676;BME280;4876;42.656;23.292;2023-11-18T04:05:22;93745.69;;;3.06;81.00
9676;BME280;4876;42.656;23.292;2023-11-18T04:07:50;93764.69;;;3.01;80.72
9676;BME280;4876;42.656;23.292;2023-11-18T04:10:17;93750.09;;;3.05;80.60
9676;BME280;4876;42.656;23.292;2023-11-18T04:12:45;93762.91;;;2.96;80.33
9676;BME280;4876;42.656;23.292;2023-11-18T04:15:13;93770.41;;;2.98;81.21
9676;BME280;4876;42.656;23.292;2023-11-18T04:17:41;93774.84;;;2.97;80.14
9676;BME280;4876;42.656;23.292;2023-11-18T04:20:10;93781.38;;;2.95;80.68
9676;BME280;4876;42.656;23.292;2023-11-18T04:22:39;93781.38;;;2.95;80.33
9676;BME280;4876;42.656;23.292;2023-11-18T04:25:08;93790.22;;;2.94;80.13
9676;BME280;4876;42.656;23.292;2023-11-18T04:27:35;93783.34;;;3.03;80.36
9676;BME280;4876;42.656;23.292;2023-11-18T04:30:03;93785.22;;;2.97;79.99
9676;BME280;4876;42.656;23.292;2023-11-18T04:32:30;93785.19;;;3.03;80.85
9676;BME280;4876;42.656;23.292;2023-11-18T04:34:58;93783.88;;;3.05;79.81
9676;BME280;4876;42.656;23.292;2023-11-18T04:37:25;93795.41;;;2.94;79.76
9676;BME280;4876;42.656;23.292;2023-11-18T04:39:52;93796.72;;;2.91;79.67
9676;BME280;4876;42.656;23.292;2023-11-18T04:42:22;93784.69;;;3.01;79.62
9676;BME280;4876;42.656;23.292;2023-11-18T04:44:49;93791.72;;;3.00;79.88
9676;BME280;4876;42.656;23.292;2023-11-18T04:47:16;93788.16;;;2.91;79.93
9676;BME280;4876;42.656;23.292;2023-11-18T04:49:44;93792.84;;;2.89;79.84
9676;BME280;4876;42.656;23.292;2023-11-18T04:52:11;93793.50;;;2.76;80.06
9676;BME280;4876;42.656;23.292;2023-11-18T04:54:38;93801.28;;;2.76;79.96
9676;BME280;4876;42.656;23.292;2023-11-18T04:57:04;93798.13;;;2.79;79.90
9676;BME280;4876;42.656;23.292;2023-11-18T04:59:35;93796.00;;;2.86;79.43
9676;BME280;4876;42.656;23.292;2023-11-18T05:02:02;93792.78;;;2.99;79.30
9676;BME280;4876;42.656;23.292;2023-11-18T05:04:29;93787.38;;;2.90;78.81
9676;BME280;4876;42.656;23.292;2023-11-18T05:06:56;93776.00;;;2.86;78.65
9676;BME280;4876;42.656;23.292;2023-11-18T05:09:23;93763.81;;;2.87;78.33
9676;BME280;4876;42.656;23.292;2023-11-18T05:11:51;93755.72;;;2.88;78.41
9676;BME280;4876;42.656;23.292;2023-11-18T05:14:19;93766.41;;;2.87;78.07
9676;BME280;4876;42.656;23.292;2023-11-18T05:16:53;93752.75;;;2.76;77.89
9676;BME280;4876;42.656;23.292;2023-11-18T05:19:20;93756.66;;;2.74;77.20
9676;BME280;4876;42.656;23.292;2023-11-18T05:21:47;93763.81;;;2.87;77.42
9676;BME280;4876;42.656;23.292;2023-11-18T05:24:15;93755.28;;;2.81;77.30
9676;BME280;4876;42.656;23.292;2023-11-18T05:26:42;93767.75;;;2.79;77.92
9676;BME280;4876;42.656;23.292;2023-11-18T05:29:09;93762.78;;;2.83;76.97
9676;BME280;4876;42.656;23.292;2023-11-18T05:31:41;93765.88;;;2.85;77.21
9676;BME280;4876;42.656;23.292;2023-11-18T05:34:10;93765.97;;;2.80;77.35
9676;BME280;4876;42.656;23.292;2023-11-18T05:36:38;93751.97;;;2.76;76.71
9676;BME280;4876;42.656;23.292;2023-11-18T05:39:06;93743.63;;;2.79;76.63
9676;BME280;4876;42.656;23.292;2023-11-18T05:41:34;93756.06;;;2.82;75.97
9676;BME280;4876;42.656;23.292;2023-11-18T05:44:05;93730.53;;;2.89;75.90
9676;BME280;4876;42.656;23.292;2023-11-18T05:46:34;93736.75;;;2.93;75.51
9676;BME280;4876;42.656;23.292;2023-11-18T05:49:02;93760.16;;;2.88;74.80
9676;BME280;4876;42.656;23.292;2023-11-18T05:51:34;93741.25;;;2.82;75.05
9676;BME280;4876;42.656;23.292;2023-11-18T05:54:01;93754.72;;;2.84;74.94
9676;BME280;4876;42.656;23.292;2023-11-18T05:56:28;93757.59;;;2.83;75.81
9676;BME280;4876;42.656;23.292;2023-11-18T05:58:55;93770.22;;;2.94;76.66
9676;BME280;4876;42.656;23.292;2023-11-18T06:01:21;93763.03;;;2.86;76.47
9676;BME280;4876;42.656;23.292;2023-11-18T06:03:48;93776.19;;;2.95;76.07
9676;BME280;4876;42.656;23.292;2023-11-18T06:06:16;93763.25;;;2.90;75.51
9676;BME280;4876;42.656;23.292;2023-11-18T06:08:44;93770.13;;;2.76;75.46
9676;BME280;4876;42.656;23.292;2023-11-18T06:11:13;93786.63;;;2.61;76.27
9676;BME280;4876;42.656;23.292;2023-11-18T06:13:41;93783.75;;;2.62;77.41
9676;BME280;4876;42.656;23.292;2023-11-18T06:16:15;93786.03;;;2.69;77.32
9676;BME280;4876;42.656;23.292;2023-11-18T06:18:43;93796.38;;;2.74;77.71
9676;BME280;4876;42.656;23.292;2023-11-18T06:21:13;93801.00;;;2.77;78.67
9676;BME280;4876;42.656;23.292;2023-11-18T06:23:41;93780.66;;;2.60;78.66
9676;BME280;4876;42.656;23.292;2023-11-18T06:26:09;93788.31;;;2.76;79.17
9676;BME280;4876;42.656;23.292;2023-11-18T06:28:38;93777.47;;;2.68;78.84
9676;BME280;4876;42.656;23.292;2023-11-18T06:31:05;93781.56;;;2.75;78.71
9676;BME280;4876;42.656;23.292;2023-11-18T06:33:38;93778.22;;;2.74;78.92
9676;BME280;4876;42.656;23.292;2023-11-18T06:36:08;93766.72;;;2.80;78.48
9676;BME280;4876;42.656;23.292;2023-11-18T06:38:36;93787.13;;;2.92;78.13
9676;BME280;4876;42.656;23.292;2023-11-18T06:41:04;93772.53;;;2.96;77.47
9676;BME280;4876;42.656;23.292;2023-11-18T06:43:36;93758.94;;;3.04;77.37
9676;BME280;4876;42.656;23.292;2023-11-18T06:46:18;93770.88;;;3.05;76.41
9676;BME280;4876;42.656;23.292;2023-11-18T06:48:47;93774.25;;;3.06;76.00
9676;BME280;4876;42.656;23.292;2023-11-18T06:51:14;93785.69;;;3.05;75.45
9676;BME280;4876;42.656;23.292;2023-11-18T06:53:42;93763.09;;;3.05;75.38
9676;BME280;4876;42.656;23.292;2023-11-18T06:56:09;93771.53;;;3.16;74.28
9676;BME280;4876;42.656;23.292;2023-11-18T06:58:38;93788.03;;;3.30;73.50
9676;BME280;4876;42.656;23.292;2023-11-18T07:01:06;93789.34;;;3.28;73.84
9676;BME280;4876;42.656;23.292;2023-11-18T07:03:33;93783.16;;;3.23;73.04
9676;BME280;4876;42.656;23.292;2023-11-18T07:06:01;93794.19;;;3.34;73.42
9676;BME280;4876;42.656;23.292;2023-11-18T07:08:28;93792.38;;;3.35;72.92
9676;BME280;4876;42.656;23.292;2023-11-18T07:10:55;93783.09;;;3.29;73.34
9676;BME280;4876;42.656;23.292;2023-11-18T07:13:23;93790.88;;;3.29;72.69
9676;BME280;4876;42.656;23.292;2023-11-18T07:15:51;93791.81;;;3.38;72.98
9676;BME280;4876;42.656;23.292;2023-11-18T07:18:19;93790.22;;;3.42;72.75
9676;BME280;4876;42.656;23.292;2023-11-18T07:20:47;93789.78;;;3.35;72.76
9676;BME280;4876;42.656;23.292;2023-11-18T07:23:14;93796.63;;;3.26;73.16
9676;BME280;4876;42.656;23.292;2023-11-18T07:25:43;93800.09;;;3.16;73.18
9676;BME280;4876;42.656;23.292;2023-11-18T07:28:10;93795.19;;;3.14;73.85
9676;BME280;4876;42.656;23.292;2023-11-18T07:30:36;93804.44;;;3.26;74.27
9676;BME280;4876;42.656;23.292;2023-11-18T07:33:05;93811.22;;;3.21;73.84
9676;BME280;4876;42.656;23.292;2023-11-18T07:35:33;93812.28;;;3.20;73.29
9676;BME280;4876;42.656;23.292;2023-11-18T07:38:02;93823.78;;;3.14;73.38
9676;BME280;4876;42.656;23.292;2023-11-18T07:40:29;93829.78;;;3.10;74.25
9676;BME280;4876;42.656;23.292;2023-11-18T07:42:55;93826.97;;;3.06;74.75
9676;BME280;4876;42.656;23.292;2023-11-18T07:45:23;93831.16;;;3.02;74.98
9676;BME280;4876;42.656;23.292;2023-11-18T07:47:49;93840.44;;;3.08;74.59
9676;BME280;4876;42.656;23.292;2023-11-18T07:50:18;93826.56;;;2.94;75.21
9676;BME280;4876;42.656;23.292;2023-11-18T07:52:46;93822.91;;;2.95;75.57
9676;BME280;4876;42.656;23.292;2023-11-18T07:55:14;93812.22;;;3.02;76.13
9676;BME280;4876;42.656;23.292;2023-11-18T07:57:41;93820.28;;;3.00;75.91
9676;BME280;4876;42.656;23.292;2023-11-18T08:00:08;93814.34;;;2.94;75.92
9676;BME280;4876;42.656;23.292;2023-11-18T08:02:35;93814.63;;;2.93;75.17
9676;BME280;4876;42.656;23.292;2023-11-18T08:05:02;93819.50;;;3.00;75.51
9676;BME280;4876;42.656;23.292;2023-11-18T08:07:34;93814.84;;;2.96;75.68
9676;BME280;4876;42.656;23.292;2023-11-18T08:10:02;93817.28;;;2.88;75.07
9676;BME280;4876;42.656;23.292;2023-11-18T08:12:31;93827.56;;;2.98;74.95
9676;BME280;4876;42.656;23.292;2023-11-18T08:14:58;93823.16;;;2.99;75.29
9676;BME280;4876;42.656;23.292;2023-11-18T08:17:25;93825.16;;;3.07;74.62
9676;BME280;4876;42.656;23.292;2023-11-18T08:19:52;93822.72;;;3.15;74.37
9676;BME280;4876;42.656;23.292;2023-11-18T08:22:19;93833.63;;;3.17;74.28
9676;BME280;4876;42.656;23.292;2023-11-18T08:24:49;93830.66;;;3.00;73.84
9676;BME280;4876;42.656;23.292;2023-11-18T08:27:17;93824.19;;;2.97;74.18
9676;BME280;4876;42.656;23.292;2023-11-18T08:29:44;93832.13;;;3.11;74.09
9676;BME280;4876;42.656;23.292;2023-11-18T08:32:14;93826.38;;;3.14;74.16
9676;BME280;4876;42.656;23.292;2023-11-18T08:34:41;93822.72;;;3.15;73.86
9676;BME280;4876;42.656;23.292;2023-11-18T08:37:07;93836.22;;;3.17;73.62
9676;BME280;4876;42.656;23.292;2023-11-18T08:39:34;93832.34;;;3.15;73.72
9676;BME280;4876;42.656;23.292;2023-11-18T08:42:03;93845.03;;;3.16;73.53
9676;BME280;4876;42.656;23.292;2023-11-18T08:44:33;93846.34;;;3.19;74.08
9676;BME280;4876;42.656;23.292;2023-11-18T08:47:00;93863.28;;;3.11;74.02
9676;BME280;4876;42.656;23.292;2023-11-18T08:49:31;93845.13;;;3.11;74.91
9676;BME280;4876;42.656;23.292;2023-11-18T08:51:59;93858.63;;;3.08;74.82
9676;BME280;4876;42.656;23.292;2023-11-18T08:54:27;93867.00;;;3.05;74.40
9676;BME280;4876;42.656;23.292;2023-11-18T08:57:04;93874.78;;;3.05;74.64
9676;BME280;4876;42.656;23.292;2023-11-18T08:59:45;93858.22;;;2.96;74.04
9676;BME280;4876;42.656;23.292;2023-11-18T09:02:12;93849.66;;;2.95;74.14
9676;BME280;4876;42.656;23.292;2023-11-18T09:04:41;93859.53;;;2.99;73.92
9676;BME280;4876;42.656;23.292;2023-11-18T09:07:09;93840.03;;;2.96;73.52
9676;BME280;4876;42.656;23.292;2023-11-18T09:09:36;93846.25;;;3.00;73.68
9676;BME280;4876;42.656;23.292;2023-11-18T09:12:07;93845.03;;;2.92;73.45
9676;BME280;4876;42.656;23.292;2023-11-18T09:14:35;93846.97;;;3.06;73.67
9676;BME280;4876;42.656;23.292;2023-11-18T09:17:02;93841.38;;;2.93;74.16
9676;BME280;4876;42.656;23.292;2023-11-18T09:19:32;93852.09;;;2.87;73.90
9676;BME280;4876;42.656;23.292;2023-11-18T09:21:59;93838.75;;;2.99;74.05
9676;BME280;4876;42.656;23.292;2023-11-18T09:24:26;93842.56;;;3.06;73.50
9676;BME280;4876;42.656;23.292;2023-11-18T09:26:53;93859.19;;;3.05;73.78
9676;BME280;4876;42.656;23.292;2023-11-18T09:29:21;93853.00;;;3.01;73.30
9676;BME280;4876;42.656;23.292;2023-11-18T09:31:50;93850.47;;;2.91;73.86
9676;BME280;4876;42.656;23.292;2023-11-18T09:34:18;93847.34;;;2.94;73.70
9676;BME280;4876;42.656;23.292;2023-11-18T09:36:53;93855.53;;;3.06;73.73
9676;BME280;4876;42.656;23.292;2023-11-18T09:39:20;93854.50;;;3.07;74.27
9676;BME280;4876;42.656;23.292;2023-11-18T09:42:06;93850.31;;;3.11;73.88
9676;BME280;4876;42.656;23.292;2023-11-18T09:44:37;93855.53;;;3.06;72.97
9676;BME280;4876;42.656;23.292;2023-11-18T09:47:07;93850.34;;;3.06;73.25
9676;BME280;4876;42.656;23.292;2023-11-18T09:49:43;93844.84;;;3.13;73.00
9676;BME280;4876;42.656;23.292;2023-11-18T09:52:15;93860.19;;;3.09;73.45
9676;BME280;4876;42.656;23.292;2023-11-18T09:54:50;93853.31;;;2.94;74.20
9676;BME280;4876;42.656;23.292;2023-11-18T09:57:26;93857.88;;;3.08;73.56
9676;BME280;4876;42.656;23.292;2023-11-18T10:00:01;93850.63;;;3.05;72.96
9676;BME280;4876;42.656;23.292;2023-11-18T10:02:45;93850.84;;;3.08;73.09
9676;BME280;4876;42.656;23.292;2023-11-18T10:05:13;93861.72;;;3.10;72.60
9676;BME280;4876;42.656;23.292;2023-11-18T10:07:41;93832.66;;;3.08;71.37
9676;BME280;4876;42.656;23.292;2023-11-18T10:10:08;93809.84;;;3.05;71.79
9676;BME280;4876;42.656;23.292;2023-11-18T10:12:41;93837.31;;;3.11;72.33
9676;BME280;4876;42.656;23.292;2023-11-18T10:15:14;93826.97;;;3.06;71.77
9676;BME280;4876;42.656;23.292;2023-11-18T10:17:44;93840.50;;;3.03;71.29
9676;BME280;4876;42.656;23.292;2023-11-18T10:20:21;93825.16;;;3.07;71.36
9676;BME280;4876;42.656;23.292;2023-11-18T10:23:05;93837.66;;;3.05;71.41
9676;BME280;4876;42.656;23.292;2023-11-18T10:28:06;93860.94;;;3.10;70.93
9676;BME280;4876;42.656;23.292;2023-11-18T10:30:44;93847.72;;;3.11;70.64
9676;BME280;4876;42.656;23.292;2023-11-18T10:33:14;93855.44;;;3.16;70.13
9676;BME280;4876;42.656;23.292;2023-11-18T10:35:49;93845.16;;;3.06;69.75
9676;BME280;4876;42.656;23.292;2023-11-18T10:38:21;93861.84;;;3.00;70.59
9676;BME280;4876;42.656;23.292;2023-11-18T10:40:52;93860.22;;;3.04;70.51
9676;BME280;4876;42.656;23.292;2023-11-18T10:43:21;93858.88;;;3.12;70.27
9676;BME280;4876;42.656;23.292;2023-11-18T10:45:52;93868.50;;;3.11;70.24
9676;BME280;4876;42.656;23.292;2023-11-18T10:48:19;93862.97;;;3.18;70.03
9676;BME280;4876;42.656;23.292;2023-11-18T10:50:47;93859.81;;;3.21;69.92
9676;BME280;4876;42.656;23.292;2023-11-18T10:53:18;93853.44;;;3.08;69.82
9676;BME280;4876;42.656;23.292;2023-11-18T10:55:46;93842.44;;;3.16;70.09
9676;BME280;4876;42.656;23.292;2023-11-18T10:58:15;93841.94;;;3.14;69.87
9676;BME280;4876;42.656;23.292;2023-11-18T11:00:47;93859.81;;;3.21;70.11
9676;BME280;4876;42.656;23.292;2023-11-18T11:03:16;93840.38;;;3.18;70.89
9676;BME280;4876;42.656;23.292;2023-11-18T11:05:44;93851.47;;;3.24;70.11
9676;BME280;4876;42.656;23.292;2023-11-18T11:08:13;93843.13;;;3.27;69.76
9676;BME280;4876;42.656;23.292;2023-11-18T11:10:42;93831.97;;;3.27;69.83
9676;BME280;4876;42.656;23.292;2023-11-18T11:13:09;93840.97;;;3.34;69.63
9676;BME280;4876;42.656;23.292;2023-11-18T11:15:41;93840.75;;;3.31;69.91
9676;BME280;4876;42.656;23.292;2023-11-18T11:18:20;93842.97;;;3.18;69.24
9676;BME280;4876;42.656;23.292;2023-11-18T11:20:57;93846.06;;;3.20;70.41
9676;BME280;4876;42.656;23.292;2023-11-18T11:23:35;93842.84;;;3.29;70.23
9676;BME280;4876;42.656;23.292;2023-11-18T11:26:14;93840.81;;;3.26;69.83
9676;BME280;4876;42.656;23.292;2023-11-18T11:28:53;93841.25;;;3.33;69.67
9676;BME280;4876;42.656;23.292;2023-11-18T11:31:29;93842.31;;;3.32;68.81
9676;BME280;4876;42.656;23.292;2023-11-18T11:34:02;93841.19;;;3.38;69.17
9676;BME280;4876;42.656;23.292;2023-11-18T11:36:36;93844.84;;;3.37;68.98
9676;BME280;4876;42.656;23.292;2023-11-18T11:39:08;93833.69;;;3.36;69.17
9676;BME280;4876;42.656;23.292;2023-11-18T11:41:43;93830.38;;;3.31;69.23
9676;BME280;4876;42.656;23.292;2023-11-18T11:44:12;93823.63;;;3.30;69.01
9676;BME280;4876;42.656;23.292;2023-11-18T11:46:40;93830.41;;;3.26;69.73
9676;BME280;4876;42.656;23.292;2023-11-18T11:49:10;93832.56;;;3.18;69.38
9676;BME280;4876;42.656;23.292;2023-11-18T11:51:47;93829.41;;;3.21;69.96
9676;BME280;4876;42.656;23.292;2023-11-18T11:54:20;93828.81;;;3.30;69.93
9676;BME280;4876;42.656;23.292;2023-11-18T11:56:48;93821.56;;;3.27;69.74
9676;BME280;4876;42.656;23.292;2023-11-18T11:59:35;93810.72;;;3.19;69.56
9676;BME280;4876;42.656;23.292;2023-11-18T12:02:03;93824.66;;;3.29;69.10
9676;BME280;4876;42.656;23.292;2023-11-18T12:04:34;93829.38;;;3.27;69.58
9676;BME280;4876;42.656;23.292;2023-11-18T12:07:04;93811.66;;;3.29;70.01
9676;BME280;4876;42.656;23.292;2023-11-18T12:09:31;93814.09;;;3.44;70.15
9676;BME280;4876;42.656;23.292;2023-11-18T12:12:04;93819.97;;;3.31;69.28
9676;BME280;4876;42.656;23.292;2023-11-18T12:14:49;93825.94;;;3.31;69.99
9676;BME280;4876;42.656;23.292;2023-11-18T12:17:18;93821.72;;;3.35;69.58
9676;BME280;4876;42.656;23.292;2023-11-18T12:19:49;93821.47;;;3.37;69.67
9676;BME280;4876;42.656;23.292;2023-11-18T12:22:22;93814.66;;;3.41;69.85
9676;BME280;4876;42.656;23.292;2023-11-18T12:28:09;93808.84;;;3.49;70.07
9676;BME280;4876;42.656;23.292;2023-11-18T12:30:39;93796.28;;;3.56;69.47
9676;BME280;4876;42.656;23.292;2023-11-18T12:33:17;93810.44;;;3.45;69.30
9676;BME280;4876;42.656;23.292;2023-11-18T12:36:19;93790.91;;;3.47;69.24
9676;BME280;4876;42.656;23.292;2023-11-18T12:39:08;93797.16;;;3.46;69.05
9676;BME280;4876;42.656;23.292;2023-11-18T12:41:48;93813.53;;;3.47;69.74
9676;BME280;4876;42.656;23.292;2023-11-18T12:44:29;93823.41;;;3.50;69.48
9676;BME280;4876;42.656;23.292;2023-11-18T12:47:00;93827.97;;;3.58;69.64
9676;BME280;4876;42.656;23.292;2023-11-18T12:49:40;93827.94;;;3.39;69.62
9676;BME280;4876;42.656;23.292;2023-11-18T12:52:09;93818.00;;;3.41;69.90
9676;BME280;4876;42.656;23.292;2023-11-18T12:54:37;93840.09;;;3.44;70.41
9676;BME280;4876;42.656;23.292;2023-11-18T12:57:07;93849.94;;;3.47;70.40
9676;BME280;4876;42.656;23.292;2023-11-18T12:59:34;93842.22;;;3.42;70.19
9676;BME280;4876;42.656;23.292;2023-11-18T13:02:01;93860.88;;;3.44;70.67
9676;BME280;4876;42.656;23.292;2023-11-18T13:04:30;93836.34;;;3.55;69.99
9676;BME280;4876;42.656;23.292;2023-11-18T13:06:57;93843.09;;;3.56;69.12
9676;BME280;4876;42.656;23.292;2023-11-18T13:09:26;93844.38;;;3.54;70.13
9676;BME280;4876;42.656;23.292;2023-11-18T13:11:57;93853.38;;;3.42;69.98
9676;BME280;4876;42.656;23.292;2023-11-18T13:14:26;93852.03;;;3.45;69.94
9676;BME280;4876;42.656;23.292;2023-11-18T13:16:53;93853.91;;;3.39;70.12
9676;BME280;4876;42.656;23.292;2023-11-18T13:19:25;93863.53;;;3.39;70.06
9676;BME280;4876;42.656;23.292;2023-11-18T13:21:56;93842.22;;;3.42;70.75
9676;BME280;4876;42.656;23.292;2023-11-18T13:24:24;93870.28;;;3.40;70.11
9676;BME280;4876;42.656;23.292;2023-11-18T13:26:53;93877.53;;;3.43;70.45
9676;BME280;4876;42.656;23.292;2023-11-18T13:29:21;93874.78;;;3.29;71.11
9676;BME280;4876;42.656;23.292;2023-11-18T13:31:49;93871.38;;;3.34;71.40
9676;BME280;4876;42.656;23.292;2023-11-18T13:34:16;93883.88;;;3.32;71.58
9676;BME280;4876;42.656;23.292;2023-11-18T13:36:43;93888.63;;;3.24;71.96
9676;BME280;4876;42.656;23.292;2023-11-18T13:39:15;93878.25;;;3.24;71.45